sensor_id;sensor_type;location;lat;lon;timestamp;temperature;humidity
7498;DHT22;3790;48.806;9.140;2023-09-12T00:04:45;20.20;99.90
7498;DHT22;3790;48.806;9.140;2023-09-12T00:09:45;20.20;99.90
7498;DHT22;3790;48.806;9.140;2023-09-12T00:14:46;20.10;99.90
7498;DHT22;3790;48.806;9.140;2023-09-12T00:19:46;20.00;99.90
7498;DHT22;3790;48.806;9.140;2023-09-12T00:24:47;20.10;99.90
7498;DHT22;3790;48.806;9.140;2023-09-12T00:29:48;20.20;99.90
7498;DHT22;3790;48.806;9.140;2023-09-12T00:34:48;20.20;99.90
7498;DHT22;3790;48.806;9.140;2023-09-12T00:39:49;20.20;99.90
7498;DHT22;3790;48.806;9.140;2023-09-12T00:44:49;19.80;99.90
7498;DHT22;3790;48.806;9.140;2023-09-12T00:49:50;19.30;99.90
7498;DHT22;3790;48.806;9.140;2023-09-12T00:54:51;19.20;99.90
7498;DHT22;3790;48.806;9.140;2023-09-12T00:59:53;19.10;99.90
7498;DHT22;3790;48.806;9.140;2023-09-12T02:04:32;19.60;99.90
7498;DHT22;3790;48.806;9.140;2023-09-12T02:09:33;19.70;99.90
7498;DHT22;3790;48.806;9.140;2023-09-12T02:14:33;19.80;99.90
7498;DHT22;3790;48.806;9.140;2023-09-12T02:19:34;19.70;99.90
7498;DHT22;3790;48.806;9.140;2023-09-12T02:24:35;19.60;99.90
7498;DHT22;3790;48.806;9.140;2023-09-12T02:29:36;19.40;99.90
7498;DHT22;3790;48.806;9.140;2023-09-12T02:34:36;19.30;99.90
7498;DHT22;3790;48.806;9.140;2023-09-12T02:39:37;19.30;99.90
7498;DHT22;3790;48.806;9.140;2023-09-12T02:44:37;19.10;99.90
7498;DHT22;3790;48.806;9.140;2023-09-12T02:49:38;18.80;99.90
7498;DHT22;3790;48.806;9.140;2023-09-12T02:54:38;18.70;99.90
7498;DHT22;3790;48.806;9.140;2023-09-12T02:59:39;18.80;99.90
7498;DHT22;3790;48.806;9.140;2023-09-12T03:04:39;18.70;99.90
7498;DHT22;3790;48.806;9.140;2023-09-12T03:09:40;18.50;99.90
7498;DHT22;3790;48.806;9.140;2023-09-12T03:14:40;18.20;99.90
7498;DHT22;3790;48.806;9.140;2023-09-12T03:19:41;18.40;99.90
7498;DHT22;3790;48.806;9.140;2023-09-12T03:24:41;18.40;99.90
7498;DHT22;3790;48.806;9.140;2023-09-12T03:29:42;18.40;99.90
7498;DHT22;3790;48.806;9.140;2023-09-12T03:34:46;18.40;99.90
7498;DHT22;3790;48.806;9.140;2023-09-12T03:39:47;18.40;99.90
7498;DHT22;3790;48.806;9.140;2023-09-12T03:44:47;18.40;99.90
7498;DHT22;3790;48.806;9.140;2023-09-12T03:49:48;18.30;99.90
7498;DHT22;3790;48.806;9.140;2023-09-12T03:54:48;18.40;99.90
7498;DHT22;3790;48.806;9.140;2023-09-12T03:59:49;18.50;99.90
7498;DHT22;3790;48.806;9.140;2023-09-12T04:04:54;18.20;99.90
7498;DHT22;3790;48.806;9.140;2023-09-12T04:09:55;18.40;99.90
7498;DHT22;3790;48.806;9.140;2023-09-12T04:14:55;18.60;99.90
7498;DHT22;3790;48.806;9.140;2023-09-12T04:19:56;18.60;99.90
7498;DHT22;3790;48.806;9.140;2023-09-12T04:24:56;18.40;99.90
7498;DHT22;3790;48.806;9.140;2023-09-12T04:29:57;18.60;99.90
7498;DHT22;3790;48.806;9.140;2023-09-12T04:34:57;18.80;99.90
7498;DHT22;3790;48.806;9.140;2023-09-12T04:39:58;18.80;99.90
7498;DHT22;3790;48.806;9.140;2023-09-12T04:44:58;18.80;99.90
7498;DHT22;3790;48.806;9.140;2023-09-12T04:49:59;18.80;99.90
7498;DHT22;3790;48.806;9.140;2023-09-12T04:55:04;19.00;99.90
7498;DHT22;3790;48.806;9.140;2023-09-12T05:00:05;19.10;99.90
7498;DHT22;3790;48.806;9.140;2023-09-12T05:05:06;19.10;99.90
7498;DHT22;3790;48.806;9.140;2023-09-12T05:10:07;19.20;99.90
7498;DHT22;3790;48.806;9.140;2023-09-12T05:15:08;19.30;99.90
7498;DHT22;3790;48.806;9.140;2023-09-12T05:20:10;19.40;99.90
7498;DHT22;3790;48.806;9.140;2023-09-12T05:25:10;19.60;99.90
7498;DHT22;3790;48.806;9.140;2023-09-12T05:30:11;19.80;99.90
7498;DHT22;3790;48.806;9.140;2023-09-12T05:35:12;19.90;99.90
7498;DHT22;3790;48.806;9.140;2023-09-12T05:40:12;19.70;99.90
7498;DHT22;3790;48.806;9.140;2023-09-12T05:45:13;19.40;99.90
7498;DHT22;3790;48.806;9.140;2023-09-12T05:50:13;19.60;99.90
7498;DHT22;3790;48.806;9.140;2023-09-12T05:55:14;19.90;99.90
7498;DHT22;3790;48.806;9.140;2023-09-12T06:00:15;20.30;99.90
7498;DHT22;3790;48.806;9.140;2023-09-12T06:05:16;20.60;99.90
7498;DHT22;3790;48.806;9.140;2023-09-12T06:10:16;20.90;99.90
7498;DHT22;3790;48.806;9.140;2023-09-12T06:15:17;21.20;99.90
7498;DHT22;3790;48.806;9.140;2023-09-12T06:20:17;21.30;99.90
7498;DHT22;3790;48.806;9.140;2023-09-12T06:25:18;21.40;99.90
7498;DHT22;3790;48.806;9.140;2023-09-12T06:30:18;21.50;99.90
7498;DHT22;3790;48.806;9.140;2023-09-12T06:35:19;21.60;99.90
7498;DHT22;3790;48.806;9.140;2023-09-12T06:40:19;21.70;99.90
7498;DHT22;3790;48.806;9.140;2023-09-12T06:45:20;21.70;99.90
7498;DHT22;3790;48.806;9.140;2023-09-12T06:50:20;21.80;99.90
7498;DHT22;3790;48.806;9.140;2023-09-12T06:55:21;21.50;99.90
7498;DHT22;3790;48.806;9.140;2023-09-12T07:00:21;21.50;99.90
7498;DHT22;3790;48.806;9.140;2023-09-12T07:05:22;21.90;99.90
7498;DHT22;3790;48.806;9.140;2023-09-12T07:10:23;22.00;99.90
7498;DHT22;3790;48.806;9.140;2023-09-12T07:15:23;22.30;99.90
7498;DHT22;3790;48.806;9.140;2023-09-12T07:20:24;22.40;99.90
7498;DHT22;3790;48.806;9.140;2023-09-12T07:25:24;22.50;99.90
7498;DHT22;3790;48.806;9.140;2023-09-12T07:30:25;22.80;99.90
7498;DHT22;3790;48.806;9.140;2023-09-12T07:35:25;23.00;99.90
7498;DHT22;3790;48.806;9.140;2023-09-12T07:40:26;23.20;99.90
7498;DHT22;3790;48.806;9.140;2023-09-12T07:45:26;23.20;99.90
7498;DHT22;3790;48.806;9.140;2023-09-12T07:50:29;23.50;99.90
7498;DHT22;3790;48.806;9.140;2023-09-12T07:55:29;23.70;99.90
7498;DHT22;3790;48.806;9.140;2023-09-12T08:00:36;24.10;99.90
7498;DHT22;3790;48.806;9.140;2023-09-12T08:05:37;24.40;99.90
7498;DHT22;3790;48.806;9.140;2023-09-12T08:10:38;24.80;99.90
7498;DHT22;3790;48.806;9.140;2023-09-12T08:15:39;25.00;99.90
7498;DHT22;3790;48.806;9.140;2023-09-12T08:20:39;25.20;99.90
7498;DHT22;3790;48.806;9.140;2023-09-12T08:25:40;25.20;99.90
7498;DHT22;3790;48.806;9.140;2023-09-12T08:30:40;25.30;99.90
7498;DHT22;3790;48.806;9.140;2023-09-12T08:35:41;25.40;99.90
7498;DHT22;3790;48.806;9.140;2023-09-12T08:40:48;25.40;99.90
7498;DHT22;3790;48.806;9.140;2023-09-12T08:45:50;25.50;99.90
7498;DHT22;3790;48.806;9.140;2023-09-12T08:50:52;25.60;99.90
7498;DHT22;3790;48.806;9.140;2023-09-12T08:55:54;25.60;99.90
7498;DHT22;3790;48.806;9.140;2023-09-12T09:00:55;25.70;99.90
7498;DHT22;3790;48.806;9.140;2023-09-12T09:05:57;25.70;99.90
7498;DHT22;3790;48.806;9.140;2023-09-12T09:10:59;25.70;99.90
7498;DHT22;3790;48.806;9.140;2023-09-12T09:16:13;25.70;99.90
7498;DHT22;3790;48.806;9.140;2023-09-12T09:21:18;25.90;99.90
7498;DHT22;3790;48.806;9.140;2023-09-12T09:26:22;26.00;99.90
7498;DHT22;3790;48.806;9.140;2023-09-12T09:31:24;26.00;99.90
7498;DHT22;3790;48.806;9.140;2023-09-12T09:36:25;26.00;99.90
7498;DHT22;3790;48.806;9.140;2023-09-12T09:41:26;26.20;99.90
7498;DHT22;3790;48.806;9.140;2023-09-12T09:46:27;26.40;99.90
7498;DHT22;3790;48.806;9.140;2023-09-12T09:51:30;26.50;99.90
7498;DHT22;3790;48.806;9.140;2023-09-12T09:56:30;26.70;99.90
7498;DHT22;3790;48.806;9.140;2023-09-12T10:01:33;26.90;99.90
7498;DHT22;3790;48.806;9.140;2023-09-12T10:06:38;27.00;99.90
7498;DHT22;3790;48.806;9.140;2023-09-12T10:11:42;27.10;99.90
7498;DHT22;3790;48.806;9.140;2023-09-12T10:16:47;27.30;99.90
7498;DHT22;3790;48.806;9.140;2023-09-12T10:22:02;27.50;99.90
7498;DHT22;3790;48.806;9.140;2023-09-12T10:27:05;27.60;99.90
7498;DHT22;3790;48.806;9.140;2023-09-12T10:32:06;27.80;99.90
7498;DHT22;3790;48.806;9.140;2023-09-12T10:37:07;27.80;99.90
7498;DHT22;3790;48.806;9.140;2023-09-12T10:42:08;28.00;99.90
7498;DHT22;3790;48.806;9.140;2023-09-12T10:47:10;28.20;99.90
7498;DHT22;3790;48.806;9.140;2023-09-12T10:52:21;28.40;99.90
7498;DHT22;3790;48.806;9.140;2023-09-12T10:57:24;28.60;99.90
7498;DHT22;3790;48.806;9.140;2023-09-12T11:02:35;28.80;99.90
7498;DHT22;3790;48.806;9.140;2023-09-12T11:12:36;29.30;99.90
7498;DHT22;3790;48.806;9.140;2023-09-12T11:17:44;29.60;99.90
7498;DHT22;3790;48.806;9.140;2023-09-12T11:22:46;30.00;99.90
7498;DHT22;3790;48.806;9.140;2023-09-12T11:32:53;30.90;99.90
7498;DHT22;3790;48.806;9.140;2023-09-12T11:37:58;31.20;99.90
7498;DHT22;3790;48.806;9.140;2023-09-12T11:43:00;31.40;99.90
7498;DHT22;3790;48.806;9.140;2023-09-12T11:48:02;31.60;99.90
7498;DHT22;3790;48.806;9.140;2023-09-12T11:53:08;31.70;99.90
7498;DHT22;3790;48.806;9.140;2023-09-12T11:58:09;31.90;99.90
7498;DHT22;3790;48.806;9.140;2023-09-12T12:03:10;32.20;99.90
7498;DHT22;3790;48.806;9.140;2023-09-12T12:08:11;32.00;99.90
7498;DHT22;3790;48.806;9.140;2023-09-12T12:13:16;32.20;99.90
7498;DHT22;3790;48.806;9.140;2023-09-12T12:18:17;32.30;99.90
7498;DHT22;3790;48.806;9.140;2023-09-12T12:23:17;32.40;99.90
7498;DHT22;3790;48.806;9.140;2023-09-12T12:28:18;32.70;99.90
7498;DHT22;3790;48.806;9.140;2023-09-12T12:33:18;33.00;99.90
7498;DHT22;3790;48.806;9.140;2023-09-12T12:38:19;33.20;99.90
7498;DHT22;3790;48.806;9.140;2023-09-12T12:43:20;32.50;99.20
7498;DHT22;3790;48.806;9.140;2023-09-12T12:48:35;32.20;99.90
7498;DHT22;3790;48.806;9.140;2023-09-12T12:53:40;32.30;99.90
7498;DHT22;3790;48.806;9.140;2023-09-12T12:58:46;32.20;99.90
7498;DHT22;3790;48.806;9.140;2023-09-12T13:03:47;32.00;99.70
7498;DHT22;3790;48.806;9.140;2023-09-12T13:08:51;32.30;99.90
7498;DHT22;3790;48.806;9.140;2023-09-12T13:13:52;32.70;99.10
7498;DHT22;3790;48.806;9.140;2023-09-12T13:18:52;33.20;98.40
7498;DHT22;3790;48.806;9.140;2023-09-12T13:23:53;33.10;98.20
7498;DHT22;3790;48.806;9.140;2023-09-12T13:28:54;33.10;98.10
7498;DHT22;3790;48.806;9.140;2023-09-12T13:33:54;33.00;98.20
7498;DHT22;3790;48.806;9.140;2023-09-12T13:38:55;33.40;98.00
7498;DHT22;3790;48.806;9.140;2023-09-12T13:43:56;33.10;98.30
7498;DHT22;3790;48.806;9.140;2023-09-12T13:48:56;32.70;98.30
7498;DHT22;3790;48.806;9.140;2023-09-12T13:54:00;32.30;99.20
7498;DHT22;3790;48.806;9.140;2023-09-12T13:59:01;32.10;99.60
7498;DHT22;3790;48.806;9.140;2023-09-12T14:04:05;31.90;99.60
7498;DHT22;3790;48.806;9.140;2023-09-12T14:09:06;31.90;99.10
7498;DHT22;3790;48.806;9.140;2023-09-12T14:14:06;32.30;99.60
7498;DHT22;3790;48.806;9.140;2023-09-12T14:19:07;32.50;98.80
7498;DHT22;3790;48.806;9.140;2023-09-12T14:24:08;32.30;99.10
7498;DHT22;3790;48.806;9.140;2023-09-12T14:29:11;32.60;98.80
7498;DHT22;3790;48.806;9.140;2023-09-12T14:34:12;32.30;99.30
7498;DHT22;3790;48.806;9.140;2023-09-12T14:39:12;32.00;99.90
7498;DHT22;3790;48.806;9.140;2023-09-12T14:44:14;31.60;99.90
7498;DHT22;3790;48.806;9.140;2023-09-12T14:49:15;31.40;99.90
7498;DHT22;3790;48.806;9.140;2023-09-12T14:54:15;31.10;99.90
7498;DHT22;3790;48.806;9.140;2023-09-12T14:59:16;30.90;99.90
7498;DHT22;3790;48.806;9.140;2023-09-12T15:04:17;31.00;99.90
7498;DHT22;3790;48.806;9.140;2023-09-12T15:09:18;30.90;99.90
7498;DHT22;3790;48.806;9.140;2023-09-12T15:14:18;31.10;99.90
7498;DHT22;3790;48.806;9.140;2023-09-12T15:19:19;31.20;99.90
7498;DHT22;3790;48.806;9.140;2023-09-12T15:24:20;31.00;99.90
7498;DHT22;3790;48.806;9.140;2023-09-12T15:29:20;31.20;99.90
7498;DHT22;3790;48.806;9.140;2023-09-12T15:34:21;31.20;99.90
7498;DHT22;3790;48.806;9.140;2023-09-12T15:39:27;31.20;99.90
7498;DHT22;3790;48.806;9.140;2023-09-12T15:44:27;31.20;99.90
7498;DHT22;3790;48.806;9.140;2023-09-12T15:49:28;31.40;99.90
7498;DHT22;3790;48.806;9.140;2023-09-12T15:54:30;31.40;99.90
7498;DHT22;3790;48.806;9.140;2023-09-12T15:59:33;31.10;99.90
7498;DHT22;3790;48.806;9.140;2023-09-12T16:04:36;30.90;99.90
7498;DHT22;3790;48.806;9.140;2023-09-12T16:09:36;31.00;99.90
7498;DHT22;3790;48.806;9.140;2023-09-12T16:14:37;31.40;99.90
7498;DHT22;3790;48.806;9.140;2023-09-12T16:19:37;32.10;99.90
7498;DHT22;3790;48.806;9.140;2023-09-12T16:24:38;32.70;99.90
7498;DHT22;3790;48.806;9.140;2023-09-12T16:29:38;33.20;99.90
7498;DHT22;3790;48.806;9.140;2023-09-12T16:34:46;33.60;99.40
7498;DHT22;3790;48.806;9.140;2023-09-12T16:39:47;33.50;98.60
7498;DHT22;3790;48.806;9.140;2023-09-12T16:44:47;33.50;97.40
7498;DHT22;3790;48.806;9.140;2023-09-12T16:49:48;33.40;98.50
7498;DHT22;3790;48.806;9.140;2023-09-12T16:54:48;33.20;99.10
7498;DHT22;3790;48.806;9.140;2023-09-12T16:59:49;32.50;99.90
7498;DHT22;3790;48.806;9.140;2023-09-12T17:04:49;31.80;99.90
7498;DHT22;3790;48.806;9.140;2023-09-12T17:09:50;30.90;99.90
7498;DHT22;3790;48.806;9.140;2023-09-12T17:14:50;30.00;99.90
7498;DHT22;3790;48.806;9.140;2023-09-12T17:19:51;29.30;99.90
7498;DHT22;3790;48.806;9.140;2023-09-12T17:24:51;28.80;99.90
7498;DHT22;3790;48.806;9.140;2023-09-12T17:29:52;28.30;99.90
7498;DHT22;3790;48.806;9.140;2023-09-12T17:34:53;28.00;99.90
7498;DHT22;3790;48.806;9.140;2023-09-12T17:39:55;27.60;99.90
7498;DHT22;3790;48.806;9.140;2023-09-12T17:44:57;27.50;99.90
7498;DHT22;3790;48.806;9.140;2023-09-12T17:50:02;27.20;99.90
7498;DHT22;3790;48.806;9.140;2023-09-12T17:55:04;26.80;99.90
7498;DHT22;3790;48.806;9.140;2023-09-12T18:00:05;26.60;99.90
7498;DHT22;3790;48.806;9.140;2023-09-12T18:05:06;26.50;99.90
7498;DHT22;3790;48.806;9.140;2023-09-12T18:10:09;26.30;99.90
7498;DHT22;3790;48.806;9.140;2023-09-12T18:15:09;26.30;99.90
7498;DHT22;3790;48.806;9.140;2023-09-12T18:20:11;26.30;99.90
7498;DHT22;3790;48.806;9.140;2023-09-12T18:25:11;26.20;99.90
7498;DHT22;3790;48.806;9.140;2023-09-12T18:30:12;26.10;99.90
7498;DHT22;3790;48.806;9.140;2023-09-12T18:35:12;25.90;99.90
7498;DHT22;3790;48.806;9.140;2023-09-12T18:40:13;25.50;99.90
7498;DHT22;3790;48.806;9.140;2023-09-12T18:45:14;25.40;99.90
7498;DHT22;3790;48.806;9.140;2023-09-12T18:50:14;25.30;99.90
7498;DHT22;3790;48.806;9.140;2023-09-12T18:55:15;25.30;99.90
7498;DHT22;3790;48.806;9.140;2023-09-12T19:00:15;25.30;99.90
7498;DHT22;3790;48.806;9.140;2023-09-12T19:05:17;25.20;99.90
7498;DHT22;3790;48.806;9.140;2023-09-12T19:10:17;25.10;99.90
7498;DHT22;3790;48.806;9.140;2023-09-12T19:15:18;24.70;99.90
7498;DHT22;3790;48.806;9.140;2023-09-12T19:20:19;24.50;99.90
7498;DHT22;3790;48.806;9.140;2023-09-12T19:25:19;24.40;99.90
7498;DHT22;3790;48.806;9.140;2023-09-12T19:30:20;24.60;99.90
7498;DHT22;3790;48.806;9.140;2023-09-12T19:35:21;24.60;99.90
7498;DHT22;3790;48.806;9.140;2023-09-12T19:40:21;24.60;99.90
7498;DHT22;3790;48.806;9.140;2023-09-12T19:45:22;24.70;99.90
7498;DHT22;3790;48.806;9.140;2023-09-12T19:50:22;24.70;99.90
7498;DHT22;3790;48.806;9.140;2023-09-12T19:55:23;24.70;99.90
7498;DHT22;3790;48.806;9.140;2023-09-12T20:05:34;24.50;99.90
7498;DHT22;3790;48.806;9.140;2023-09-12T20:10:35;24.40;99.90
7498;DHT22;3790;48.806;9.140;2023-09-12T20:15:36;24.40;99.90
7498;DHT22;3790;48.806;9.140;2023-09-12T20:20:38;24.30;99.90
7498;DHT22;3790;48.806;9.140;2023-09-12T20:25:39;24.10;99.90
7498;DHT22;3790;48.806;9.140;2023-09-12T20:30:39;23.90;99.90
7498;DHT22;3790;48.806;9.140;2023-09-12T20:35:40;23.80;99.90
7498;DHT22;3790;48.806;9.140;2023-09-12T20:40:40;23.70;99.90
7498;DHT22;3790;48.806;9.140;2023-09-12T20:45:41;23.60;99.90
7498;DHT22;3790;48.806;9.140;2023-09-12T20:50:42;23.40;99.90
7498;DHT22;3790;48.806;9.140;2023-09-12T20:55:45;23.50;99.90
7498;DHT22;3790;48.806;9.140;2023-09-12T21:00:45;23.60;99.90
7498;DHT22;3790;48.806;9.140;2023-09-12T21:05:46;23.60;99.90
7498;DHT22;3790;48.806;9.140;2023-09-12T21:10:47;23.50;99.90
7498;DHT22;3790;48.806;9.140;2023-09-12T21:15:47;23.50;99.90
7498;DHT22;3790;48.806;9.140;2023-09-12T21:20:48;23.40;99.90
7498;DHT22;3790;48.806;9.140;2023-09-12T21:25:48;23.30;99.90
7498;DHT22;3790;48.806;9.140;2023-09-12T21:30:50;23.40;99.90
7498;DHT22;3790;48.806;9.140;2023-09-12T21:35:51;23.40;99.90
7498;DHT22;3790;48.806;9.140;2023-09-12T21:40:52;23.40;99.90
7498;DHT22;3790;48.806;9.140;2023-09-12T21:45:52;23.30;99.90
7498;DHT22;3790;48.806;9.140;2023-09-12T21:50:53;23.10;99.90
7498;DHT22;3790;48.806;9.140;2023-09-12T21:55:54;22.80;99.90
7498;DHT22;3790;48.806;9.140;2023-09-12T22:00:55;22.60;99.90
7498;DHT22;3790;48.806;9.140;2023-09-12T22:05:56;22.50;99.90
7498;DHT22;3790;48.806;9.140;2023-09-12T22:10:56;22.40;99.90
7498;DHT22;3790;48.806;9.140;2023-09-12T22:15:57;22.20;99.90
7498;DHT22;3790;48.806;9.140;2023-09-12T22:20:57;22.20;99.90
7498;DHT22;3790;48.806;9.140;2023-09-12T22:25:58;22.20;99.90
7498;DHT22;3790;48.806;9.140;2023-09-12T22:30:58;22.20;99.90
7498;DHT22;3790;48.806;9.140;2023-09-12T22:35:59;22.20;99.90
7498;DHT22;3790;48.806;9.140;2023-09-12T22:41:00;22.30;99.90
7498;DHT22;3790;48.806;9.140;2023-09-12T22:46:01;22.30;99.90
7498;DHT22;3790;48.806;9.140;2023-09-12T22:51:01;22.20;99.90
7498;DHT22;3790;48.806;9.140;2023-09-12T22:56:03;22.30;99.90
7498;DHT22;3790;48.806;9.140;2023-09-12T23:01:03;22.30;99.90
7498;DHT22;3790;48.806;9.140;2023-09-12T23:06:04;22.30;99.90
7498;DHT22;3790;48.806;9.140;2023-09-12T23:11:05;22.50;99.90
7498;DHT22;3790;48.806;9.140;2023-09-12T23:16:05;22.60;99.90
7498;DHT22;3790;48.806;9.140;2023-09-12T23:21:06;22.60;99.90
7498;DHT22;3790;48.806;9.140;2023-09-12T23:26:06;22.70;99.90
7498;DHT22;3790;48.806;9.140;2023-09-12T23:31:07;22.70;99.90
7498;DHT22;3790;48.806;9.140;2023-09-12T23:36:07;22.60;99.90
7498;DHT22;3790;48.806;9.140;2023-09-12T23:41:09;22.40;99.90
7498;DHT22;3790;48.806;9.140;2023-09-12T23:46:12;22.10;99.90
7498;DHT22;3790;48.806;9.140;2023-09-12T23:51:13;21.80;99.90
7498;DHT22;3790;48.806;9.140;2023-09-12T23:56:15;21.20;99.90
